Ashfield, Massachusetts
Current Conditions -  °F | °C
As of 11:52 PM on Saturday 20 Dec 2014 (Local Time) from KAQW Reporting Station
Overcast Overcast  
Wind Chill: -3°   Ceiling: 2900
Heat Index: -3°   Visibility: 10mi
Dew Point: -7°   Wind: 0mph
Humidity: 78%   Direction: NA
Pressure: 30.28"   Gusts: NA
Location:  42.53°N, 72.79°W
Report Text: KAQW 210452Z AUTO 00000KT 10SM OVC029 M03/M07 A3028 RMK AO2 SLP262 T10331067 400061083
Loading
Personal Weather Stations






























Interactive Weather Map New forecast layout! Learn more

10-Day Weather Forecast

Advertisements
Track Severe Weather on mobile